createdAt,value
2019-04-14T00:01:26.086Z,99.60
2019-04-14T00:04:13.902Z,99.90
2019-04-14T00:06:46.254Z,99.80
2019-04-14T00:09:18.345Z,99.90
2019-04-14T00:11:48.186Z,99.80
2019-04-14T00:14:18.593Z,99.80
2019-04-14T00:16:48.977Z,99.90
2019-04-14T00:19:19.988Z,99.90
2019-04-14T00:21:50.487Z,99.90
2019-04-14T00:24:20.863Z,99.90
2019-04-14T00:26:50.988Z,99.90
2019-04-14T00:29:21.661Z,99.90
2019-04-14T00:31:53.704Z,99.90
2019-04-14T00:34:59.383Z,99.90
2019-04-14T00:37:48.997Z,99.80
2019-04-14T00:40:25.523Z,99.40
2019-04-14T00:43:17.828Z,99.40
2019-04-14T00:45:55.034Z,99.10
2019-04-14T00:48:26.141Z,98.80
2019-04-14T00:50:56.002Z,99.00
2019-04-14T00:53:27.461Z,98.30
2019-04-14T00:55:57.620Z,98.30
2019-04-14T00:58:29.910Z,98.30
2019-04-14T01:01:00.555Z,98.20
2019-04-14T01:03:31.045Z,98.20
2019-04-14T01:06:01.174Z,98.10
2019-04-14T01:08:31.481Z,98.10
2019-04-14T01:11:01.099Z,98.00
2019-04-14T01:13:31.144Z,97.80
2019-04-14T01:16:08.942Z,97.80
2019-04-14T01:18:32.587Z,97.80
2019-04-14T01:21:02.503Z,97.80
2019-04-14T01:23:32.662Z,97.90
2019-04-14T01:26:03.388Z,97.90
2019-04-14T01:28:33.692Z,97.90
2019-04-14T01:31:05.399Z,97.70
2019-04-14T01:33:35.945Z,97.70
2019-04-14T01:36:06.106Z,97.50
2019-04-14T01:38:36.480Z,97.80
2019-04-14T01:41:06.443Z,97.80
2019-04-14T01:43:36.939Z,98.00
2019-04-14T01:46:14.803Z,98.00
2019-04-14T01:48:37.540Z,98.10
2019-04-14T01:51:29.599Z,98.10
2019-04-14T01:54:17.097Z,98.00
2019-04-14T01:57:09.104Z,98.20
2019-04-14T01:59:39.085Z,98.20
2019-04-14T02:02:11.897Z,98.50
2019-04-14T02:04:42.200Z,98.50
2019-04-14T02:07:12.357Z,98.50
2019-04-14T02:09:42.496Z,99.00
2019-04-14T02:12:12.827Z,98.80
2019-04-14T02:14:43.341Z,98.90
2019-04-14T02:17:13.278Z,98.70
2019-04-14T02:19:43.898Z,99.10
2019-04-14T02:22:14.195Z,98.90
2019-04-14T02:24:43.910Z,99.00
2019-04-14T02:27:14.305Z,99.20
2019-04-14T02:29:45.040Z,99.50
2019-04-14T02:32:41.882Z,99.60
2019-04-14T02:35:28.783Z,99.90
2019-04-14T02:40:21.709Z,99.90
2019-04-14T02:42:49.834Z,99.90
2019-04-14T02:48:03.592Z,99.90
2019-04-14T02:50:26.324Z,99.90
2019-04-14T02:52:53.670Z,99.90
2019-04-14T02:55:23.416Z,99.90
2019-04-14T02:57:52.804Z,99.90
2019-04-14T03:00:37.152Z,99.90
2019-04-14T03:03:03.496Z,99.90
2019-04-14T03:05:34.379Z,99.90
2019-04-14T03:08:11.471Z,99.90
2019-04-14T03:10:42.142Z,99.90
2019-04-14T03:13:15.904Z,99.90
2019-04-14T03:21:21.255Z,99.90
2019-04-14T03:24:03.606Z,99.90
2019-04-14T03:26:41.991Z,99.90
2019-04-14T03:29:16.992Z,99.90
2019-04-14T03:34:34.674Z,99.90
2019-04-14T03:39:34.839Z,99.90
2019-04-14T03:42:06.269Z,99.90
2019-04-14T03:54:36.644Z,99.90
2019-04-14T03:56:53.564Z,99.90
2019-04-14T03:59:24.091Z,99.90
2019-04-14T04:01:54.482Z,99.90
2019-04-14T04:04:25.047Z,99.90
2019-04-14T04:06:55.338Z,99.90
2019-04-14T04:09:35.033Z,99.90
2019-04-14T04:12:05.433Z,99.90
2019-04-14T04:14:39.842Z,99.90
2019-04-14T04:17:27.793Z,99.90
2019-04-14T04:20:32.837Z,99.90
2019-04-14T04:23:20.552Z,99.90
2019-04-14T04:26:08.227Z,99.90
2019-04-14T04:28:56.251Z,99.90
2019-04-14T04:31:46.186Z,99.90
2019-04-14T04:34:44.687Z,99.90
2019-04-14T04:37:47.886Z,99.90
2019-04-14T04:40:27.079Z,99.90
2019-04-14T04:43:05.857Z,99.90
2019-04-14T04:45:36.582Z,99.90
2019-04-14T04:48:06.728Z,99.90
2019-04-14T04:50:38.855Z,99.90
2019-04-14T04:53:09.088Z,99.90
2019-04-14T04:55:39.594Z,99.90
2019-04-14T04:58:10.077Z,99.90
2019-04-14T05:00:40.174Z,99.90
2019-04-14T05:03:11.013Z,99.90
2019-04-14T05:06:27.175Z,99.90
2019-04-14T05:09:16.555Z,99.90
2019-04-14T05:12:05.079Z,99.90
2019-04-14T05:14:43.439Z,99.90
2019-04-14T05:17:14.713Z,99.90
2019-04-14T05:19:45.482Z,99.90
2019-04-14T05:22:18.227Z,99.90
2019-04-14T05:24:47.198Z,99.90
2019-04-14T05:27:18.913Z,99.90
2019-04-14T05:29:49.404Z,99.90
2019-04-14T05:32:19.449Z,99.90
2019-04-14T05:34:50.121Z,99.90
2019-04-14T05:37:20.360Z,99.90
2019-04-14T05:39:50.509Z,99.90
2019-04-14T05:42:27.087Z,99.90
2019-04-14T05:44:57.889Z,99.90
2019-04-14T05:47:28.253Z,99.90
2019-04-14T05:49:59.236Z,99.90
2019-04-14T05:52:29.642Z,99.90
2019-04-14T05:55:00.085Z,99.90
2019-04-14T05:57:30.519Z,99.90
2019-04-14T06:00:00.233Z,99.90
2019-04-14T06:02:32.019Z,99.90
2019-04-14T06:05:03.618Z,99.90
2019-04-14T06:07:36.591Z,99.90
2019-04-14T06:10:07.077Z,99.90
2019-04-14T06:12:36.502Z,99.90
2019-04-14T06:15:06.938Z,99.90
2019-04-14T06:17:38.693Z,99.90
2019-04-14T06:20:10.404Z,99.90
2019-04-14T06:22:40.135Z,99.90
2019-04-14T06:25:10.020Z,99.90
2019-04-14T06:27:39.573Z,99.90
2019-04-14T06:30:28.093Z,99.90
2019-04-14T06:32:59.854Z,99.90
2019-04-14T06:35:39.994Z,99.90
2019-04-14T06:38:13.275Z,99.90
2019-04-14T06:41:04.423Z,99.90
2019-04-14T06:43:34.769Z,99.90
2019-04-14T06:46:05.354Z,99.90
2019-04-14T06:48:35.360Z,99.90
2019-04-14T06:51:05.436Z,99.90
2019-04-14T06:53:35.567Z,99.90
2019-04-14T06:56:05.229Z,99.90
2019-04-14T06:58:36.093Z,99.50
2019-04-14T07:01:15.996Z,99.00
2019-04-14T07:03:39.197Z,99.20
2019-04-14T07:06:09.286Z,98.80
2019-04-14T07:08:39.434Z,98.90
2019-04-14T07:11:10.912Z,98.80
2019-04-14T07:13:42.741Z,99.00
2019-04-14T07:16:20.377Z,99.40
2019-04-14T07:18:53.418Z,99.80
2019-04-14T07:21:23.436Z,99.60
2019-04-14T07:23:53.222Z,99.30
2019-04-14T07:26:25.842Z,98.80
2019-04-14T07:28:57.283Z,97.90
2019-04-14T07:32:00.064Z,96.70
2019-04-14T07:34:55.615Z,94.90
2019-04-14T07:37:42.661Z,95.90
2019-04-14T07:40:39.844Z,95.40
2019-04-14T07:43:14.233Z,95.70
2019-04-14T07:46:02.701Z,96.30
2019-04-14T07:48:36.991Z,97.00
2019-04-14T07:51:18.464Z,97.20
2019-04-14T07:53:57.050Z,95.60
2019-04-14T07:56:43.077Z,93.20
2019-04-14T07:59:27.558Z,92.10
2019-04-14T08:02:35.412Z,90.10
2019-04-14T08:05:11.978Z,88.60
2019-04-14T08:07:41.530Z,87.00
2019-04-14T08:10:13.866Z,85.50
2019-04-14T08:12:44.210Z,84.10
2019-04-14T08:15:18.525Z,80.70
2019-04-14T08:17:48.837Z,80.70
2019-04-14T08:20:27.705Z,80.80
2019-04-14T08:22:53.945Z,81.00
2019-04-14T08:25:29.533Z,79.20
2019-04-14T08:28:03.269Z,74.00
2019-04-14T08:30:38.547Z,70.90
2019-04-14T08:33:08.129Z,72.30
2019-04-14T08:35:38.075Z,69.40
2019-04-14T08:38:08.084Z,68.60
2019-04-14T08:40:39.890Z,64.40
2019-04-14T08:43:27.078Z,59.20
2019-04-14T08:46:17.965Z,56.90
2019-04-14T08:49:07.275Z,54.90
2019-04-14T08:51:50.022Z,52.60
2019-04-14T08:54:48.000Z,51.90
2019-04-14T08:57:29.876Z,52.00
2019-04-14T09:00:14.853Z,49.60
2019-04-14T09:03:19.369Z,48.00
2019-04-14T09:06:00.108Z,47.90
2019-04-14T09:08:33.901Z,48.20
2019-04-14T09:11:04.813Z,48.80
2019-04-14T09:13:34.852Z,48.20
2019-04-14T09:16:11.787Z,49.50
2019-04-14T09:18:47.114Z,48.60
2019-04-14T09:21:17.911Z,46.60
2019-04-14T09:23:47.384Z,45.70
2019-04-14T09:26:17.250Z,42.60
2019-04-14T09:28:48.692Z,42.00
2019-04-14T09:31:20.059Z,40.70
2019-04-14T09:33:50.068Z,41.50
2019-04-14T09:36:27.515Z,41.80
2019-04-14T09:38:56.842Z,41.20
2019-04-14T09:41:27.664Z,42.70
2019-04-14T09:43:57.750Z,44.40
2019-04-14T09:46:28.146Z,46.60
2019-04-14T09:48:58.392Z,47.50
2019-04-14T09:51:28.386Z,48.20
2019-04-14T09:53:57.781Z,49.50
2019-04-14T09:56:27.405Z,48.70
2019-04-14T09:58:56.798Z,46.30
2019-04-14T10:01:26.454Z,46.50
2019-04-14T10:03:55.867Z,47.30
2019-04-14T10:06:25.459Z,48.20
2019-04-14T10:08:55.446Z,46.80
2019-04-14T10:11:25.552Z,47.90
2019-04-14T10:13:56.645Z,49.10
2019-04-14T10:16:26.469Z,48.50
2019-04-14T10:18:56.848Z,50.60
2019-04-14T10:21:28.385Z,51.50
2019-04-14T10:23:58.544Z,53.30
2019-04-14T10:26:28.053Z,53.80
2019-04-14T10:28:57.677Z,53.80
2019-04-14T10:31:28.617Z,53.40
2019-04-14T10:33:58.020Z,53.90
2019-04-14T10:36:31.009Z,52.90
2019-04-14T10:39:02.481Z,52.10
2019-04-14T10:41:32.614Z,51.70
2019-04-14T10:44:03.820Z,52.60
2019-04-14T10:46:33.487Z,50.40
2019-04-14T10:49:02.910Z,49.00
2019-04-14T10:51:34.158Z,50.30
2019-04-14T10:54:04.973Z,49.80
2019-04-14T10:56:38.705Z,51.90
2019-04-14T10:59:08.384Z,53.10
2019-04-14T11:01:39.050Z,52.70
2019-04-14T11:04:09.739Z,52.00
2019-04-14T11:06:54.373Z,52.10
2019-04-14T11:09:27.560Z,52.90
2019-04-14T11:11:57.367Z,53.40
2019-04-14T11:14:30.594Z,54.20
2019-04-14T11:16:59.997Z,53.90
2019-04-14T11:19:30.489Z,54.50
2019-04-14T11:22:01.373Z,53.90
2019-04-14T11:24:30.781Z,53.60
2019-04-14T11:27:00.483Z,52.20
2019-04-14T11:29:32.132Z,51.40
2019-04-14T11:32:20.394Z,52.30
2019-04-14T11:35:19.727Z,51.10
2019-04-14T11:38:07.134Z,52.50
2019-04-14T11:40:42.938Z,52.40
2019-04-14T11:43:14.313Z,52.50
2019-04-14T11:45:45.458Z,52.70
2019-04-14T11:48:20.979Z,52.90
2019-04-14T11:50:52.874Z,54.50
2019-04-14T11:53:22.540Z,53.40
2019-04-14T11:55:52.344Z,53.20
2019-04-14T11:58:23.850Z,53.60
2019-04-14T12:01:14.323Z,53.10
2019-04-14T12:04:17.890Z,52.90
2019-04-14T12:06:56.187Z,52.10
2019-04-14T12:09:31.708Z,51.60
2019-04-14T12:12:01.358Z,51.80
2019-04-14T12:14:32.337Z,51.60
2019-04-14T12:17:02.685Z,52.60
2019-04-14T12:19:33.165Z,53.40
2019-04-14T12:22:08.641Z,53.70
2019-04-14T12:24:35.812Z,53.90
2019-04-14T12:27:07.590Z,53.40
2019-04-14T12:29:38.936Z,54.60
2019-04-14T12:32:10.645Z,54.20
2019-04-14T12:34:41.022Z,54.70
2019-04-14T12:37:11.062Z,54.10
2019-04-14T12:39:41.353Z,55.20
2019-04-14T12:42:30.129Z,55.70
2019-04-14T12:45:17.337Z,55.80
2019-04-14T12:48:10.781Z,55.10
2019-04-14T12:50:46.515Z,54.80
2019-04-14T12:53:16.447Z,55.00
2019-04-14T12:55:47.001Z,55.20
2019-04-14T12:58:19.385Z,54.90
2019-04-14T13:00:52.094Z,54.60
2019-04-14T13:03:22.762Z,54.30
2019-04-14T13:05:54.362Z,54.60
2019-04-14T13:08:28.985Z,54.90
2019-04-14T13:10:59.872Z,54.10
2019-04-14T13:13:31.702Z,54.20
2019-04-14T13:16:01.274Z,54.30
2019-04-14T13:18:31.671Z,54.20
2019-04-14T13:21:01.673Z,54.80
2019-04-14T13:23:31.818Z,55.40
2019-04-14T13:26:01.471Z,54.50
2019-04-14T13:28:30.805Z,55.40
2019-04-14T13:31:00.564Z,55.80
2019-04-14T13:33:29.995Z,55.60
2019-04-14T13:35:59.376Z,56.60
2019-04-14T13:38:29.605Z,55.90
2019-04-14T13:41:01.339Z,56.10
2019-04-14T13:43:33.221Z,56.40
2019-04-14T13:46:02.634Z,57.00
2019-04-14T13:48:33.650Z,56.30
2019-04-14T13:51:03.048Z,56.50
2019-04-14T13:53:32.465Z,56.20
2019-04-14T13:56:03.107Z,56.60
2019-04-14T13:58:39.067Z,56.40
2019-04-14T14:01:06.199Z,56.60
2019-04-14T14:03:40.839Z,56.70
2019-04-14T14:06:10.568Z,56.50
2019-04-14T14:08:40.669Z,56.60
2019-04-14T14:11:22.637Z,57.10
2019-04-14T14:13:58.071Z,56.70
2019-04-14T14:16:46.825Z,56.10
2019-04-14T14:19:24.636Z,56.10
2019-04-14T14:22:18.208Z,55.90
2019-04-14T14:24:58.530Z,56.00
2019-04-14T14:27:32.516Z,55.80
2019-04-14T14:30:03.116Z,55.70
2019-04-14T14:32:36.913Z,56.60
2019-04-14T14:35:07.367Z,57.50
2019-04-14T14:37:37.760Z,57.50
2019-04-14T14:40:12.854Z,57.30
2019-04-14T14:42:42.232Z,56.80
2019-04-14T14:45:38.064Z,57.00
2019-04-14T14:48:20.389Z,57.20
2019-04-14T14:51:18.377Z,56.90
2019-04-14T14:53:48.730Z,56.20
2019-04-14T14:56:18.148Z,57.20
2019-04-14T14:58:47.980Z,57.50
2019-04-14T15:01:19.818Z,58.40
2019-04-14T15:03:49.388Z,58.40
2019-04-14T15:06:18.913Z,57.50
2019-04-14T15:08:48.476Z,57.10
2019-04-14T15:11:18.173Z,57.50
2019-04-14T15:13:47.804Z,57.50
2019-04-14T15:16:17.369Z,57.10
2019-04-14T15:18:46.812Z,57.50
2019-04-14T15:21:18.064Z,57.30
2019-04-14T15:23:49.716Z,56.90
2019-04-14T15:26:20.146Z,56.90
2019-04-14T15:28:50.008Z,57.10
2019-04-14T15:31:19.439Z,57.60
2019-04-14T15:33:50.149Z,58.40
2019-04-14T15:36:20.684Z,58.30
2019-04-14T15:38:52.158Z,59.10
2019-04-14T15:41:22.018Z,59.80
2019-04-14T15:43:54.789Z,59.80
2019-04-14T15:46:24.327Z,58.90
2019-04-14T15:48:53.747Z,59.60
2019-04-14T15:51:26.969Z,60.60
2019-04-14T15:53:56.384Z,61.50
2019-04-14T15:56:36.733Z,60.60
2019-04-14T15:59:11.793Z,62.00
2019-04-14T16:02:06.289Z,62.00
2019-04-14T16:04:40.912Z,62.50
2019-04-14T16:07:20.511Z,63.80
2019-04-14T16:09:56.160Z,64.50
2019-04-14T16:12:47.291Z,64.10
2019-04-14T16:15:46.121Z,65.20
2019-04-14T16:18:36.352Z,64.80
2019-04-14T16:21:05.723Z,64.40
2019-04-14T16:23:35.267Z,65.00
2019-04-14T16:26:29.524Z,65.60
2019-04-14T16:29:21.268Z,65.90
2019-04-14T16:32:07.456Z,65.40
2019-04-14T16:34:48.465Z,65.50
2019-04-14T16:37:19.238Z,65.30
2019-04-14T16:39:49.623Z,65.50
2019-04-14T16:42:19.763Z,66.10
2019-04-14T16:44:56.125Z,66.70
2019-04-14T16:47:26.089Z,66.30
2019-04-14T16:49:55.464Z,66.50
2019-04-14T16:52:46.991Z,66.50
2019-04-14T16:55:25.654Z,66.50
2019-04-14T16:58:14.420Z,67.00
2019-04-14T17:00:46.448Z,67.50
2019-04-14T17:03:16.184Z,67.50
2019-04-14T17:05:45.856Z,67.60
2019-04-14T17:08:15.881Z,68.20
2019-04-14T17:10:45.237Z,68.20
2019-04-14T17:13:19.401Z,68.70
2019-04-14T17:16:09.234Z,68.70
2019-04-14T17:18:50.787Z,69.10
2019-04-14T17:21:32.793Z,69.00
2019-04-14T17:24:19.820Z,69.40
2019-04-14T17:27:04.429Z,69.10
2019-04-14T17:29:42.077Z,69.10
2019-04-14T17:32:33.697Z,69.70
2019-04-14T17:35:29.308Z,69.80
2019-04-14T17:38:12.699Z,69.30
2019-04-14T17:40:51.352Z,69.80
2019-04-14T17:43:47.160Z,70.00
2019-04-14T17:46:45.481Z,70.50
2019-04-14T17:49:46.490Z,70.50
2019-04-14T17:52:50.748Z,71.00
2019-04-14T17:55:49.440Z,71.50
2019-04-14T17:58:44.922Z,71.70
2019-04-14T18:01:39.929Z,72.10
2019-04-14T18:04:37.803Z,72.50
2019-04-14T18:07:35.342Z,72.60
2019-04-14T18:10:40.195Z,72.70
2019-04-14T18:13:27.752Z,72.70
2019-04-14T18:16:12.415Z,73.30
2019-04-14T18:18:55.344Z,74.10
2019-04-14T18:21:24.761Z,74.30
2019-04-14T18:23:56.640Z,74.70
2019-04-14T18:26:30.727Z,75.10
2019-04-14T18:29:19.017Z,75.70
2019-04-14T18:32:00.264Z,76.30
2019-04-14T18:34:53.462Z,76.80
2019-04-14T18:37:51.507Z,76.70
2019-04-14T18:40:40.581Z,76.80
2019-04-14T18:43:30.717Z,76.40
2019-04-14T18:46:11.258Z,76.70
2019-04-14T18:48:49.800Z,76.70
2019-04-14T18:51:47.625Z,77.50
2019-04-14T18:54:54.344Z,77.50
2019-04-14T18:57:34.122Z,78.50
2019-04-14T19:00:19.989Z,78.60
2019-04-14T19:02:52.642Z,78.30
2019-04-14T19:05:23.366Z,79.00
2019-04-14T19:07:53.569Z,79.80
2019-04-14T19:10:23.266Z,79.80
2019-04-14T19:13:01.717Z,80.40
2019-04-14T19:15:54.009Z,81.00
2019-04-14T19:18:30.643Z,81.00
2019-04-14T19:21:06.927Z,81.50
2019-04-14T19:23:38.211Z,83.80
2019-04-14T19:26:08.504Z,84.80
2019-04-14T19:28:38.116Z,85.10
2019-04-14T19:31:08.140Z,86.20
2019-04-14T19:33:37.540Z,87.50
2019-04-14T19:36:07.748Z,88.40
2019-04-14T19:38:38.573Z,90.00
2019-04-14T19:41:08.724Z,90.90
2019-04-14T19:43:38.133Z,91.80
2019-04-14T19:46:07.637Z,92.60
2019-04-14T19:48:41.040Z,93.40
2019-04-14T19:51:10.650Z,94.20
2019-04-14T19:53:40.582Z,94.70
2019-04-14T19:56:14.379Z,95.50
2019-04-14T19:58:47.040Z,96.10
2019-04-14T20:01:18.847Z,96.30
2019-04-14T20:03:48.148Z,97.10
2019-04-14T20:06:18.236Z,97.60
2019-04-14T20:08:48.209Z,98.30
2019-04-14T20:11:19.863Z,98.90
2019-04-14T20:13:49.378Z,99.20
2019-04-14T20:16:51.680Z,99.60
2019-04-14T20:19:31.149Z,99.90
2019-04-14T20:22:16.198Z,99.90
2019-04-14T20:25:32.862Z,99.90
2019-04-14T20:28:16.525Z,99.90
2019-04-14T20:31:01.451Z,99.90
2019-04-14T20:33:31.256Z,99.90
2019-04-14T20:36:00.824Z,99.90
2019-04-14T20:38:32.155Z,99.90
2019-04-14T20:41:01.646Z,99.90
2019-04-14T20:43:32.885Z,99.90
2019-04-14T20:46:02.284Z,99.90
2019-04-14T20:48:32.927Z,99.90
2019-04-14T20:51:03.560Z,99.90
2019-04-14T20:53:32.916Z,99.90
2019-04-14T20:56:03.990Z,99.90
2019-04-14T20:58:33.961Z,99.90
2019-04-14T21:01:10.513Z,99.90
2019-04-14T21:03:59.456Z,99.90
2019-04-14T21:07:00.516Z,99.90
2019-04-14T21:09:36.231Z,99.90
2019-04-14T21:12:32.000Z,99.90
2019-04-14T21:15:24.278Z,99.90
2019-04-14T21:18:12.721Z,99.90
2019-04-14T21:20:49.825Z,99.90
2019-04-14T21:23:39.141Z,99.90
2019-04-14T21:26:17.555Z,99.90
2019-04-14T21:29:15.477Z,99.90
2019-04-14T21:31:49.864Z,99.90
2019-04-14T21:34:30.433Z,99.90
2019-04-14T21:37:22.179Z,99.90
2019-04-14T21:40:00.274Z,99.90
2019-04-14T21:42:30.583Z,99.90
2019-04-14T21:45:00.724Z,99.90
2019-04-14T21:47:31.800Z,99.90
2019-04-14T21:50:04.081Z,99.90
2019-04-14T21:52:53.371Z,99.90
2019-04-14T21:55:23.290Z,99.90
2019-04-14T21:58:13.463Z,99.90
2019-04-14T22:01:53.731Z,99.90
2019-04-14T22:04:42.497Z,99.90
2019-04-14T22:07:32.566Z,99.90
2019-04-14T22:10:37.001Z,99.90
2019-04-14T22:13:07.446Z,99.90
2019-04-14T22:15:36.905Z,99.90
2019-04-14T22:18:09.180Z,99.90
2019-04-14T22:20:38.555Z,99.90
2019-04-14T22:23:10.921Z,99.90
2019-04-14T22:25:42.201Z,99.90
2019-04-14T22:28:12.398Z,99.90
2019-04-14T22:30:43.233Z,99.90
2019-04-14T22:33:12.622Z,99.90
2019-04-14T22:35:47.145Z,99.90
2019-04-14T22:38:18.027Z,99.90
2019-04-14T22:40:47.419Z,99.90
2019-04-14T22:43:18.697Z,99.90
2019-04-14T22:45:48.383Z,99.90
2019-04-14T22:48:18.379Z,99.90
2019-04-14T22:50:51.093Z,99.90
2019-04-14T22:53:21.196Z,99.90
2019-04-14T22:55:50.736Z,99.90
2019-04-14T22:58:21.232Z,99.90
2019-04-14T23:00:57.713Z,99.90
2019-04-14T23:03:49.173Z,99.90
2019-04-14T23:06:31.880Z,99.90
2019-04-14T23:09:24.234Z,99.90
2019-04-14T23:12:14.707Z,99.90
2019-04-14T23:15:08.151Z,99.90
2019-04-14T23:17:45.300Z,99.90
2019-04-14T23:20:28.782Z,99.90
2019-04-14T23:23:18.973Z,99.90
2019-04-14T23:25:48.388Z,99.90
2019-04-14T23:28:21.651Z,99.90
2019-04-14T23:30:52.955Z,99.90
2019-04-14T23:33:24.854Z,99.90
2019-04-14T23:35:58.003Z,99.90
2019-04-14T23:38:29.801Z,99.90
2019-04-14T23:41:00.130Z,99.90
2019-04-14T23:43:30.339Z,99.90
2019-04-14T23:46:05.496Z,99.90
2019-04-14T23:48:35.582Z,99.90
2019-04-14T23:51:05.940Z,99.90
2019-04-14T23:53:35.378Z,99.90
2019-04-14T23:56:05.285Z,99.90
2019-04-14T23:58:34.697Z,99.90
